sensor_id;sensor_type;location;lat;lon;timestamp;temperature;humidity
7472;DHT22;3777;48.722;8.110;2023-11-18T00:01:31;9.50;99.90
7472;DHT22;3777;48.722;8.110;2023-11-18T00:03:58;9.50;99.90
7472;DHT22;3777;48.722;8.110;2023-11-18T00:06:25;9.40;99.90
7472;DHT22;3777;48.722;8.110;2023-11-18T00:08:52;9.30;99.90
7472;DHT22;3777;48.722;8.110;2023-11-18T00:11:18;9.30;99.90
7472;DHT22;3777;48.722;8.110;2023-11-18T00:13:47;9.30;99.90
7472;DHT22;3777;48.722;8.110;2023-11-18T00:16:13;9.40;99.90
7472;DHT22;3777;48.722;8.110;2023-11-18T00:18:42;9.40;99.90
7472;DHT22;3777;48.722;8.110;2023-11-18T00:21:09;9.40;99.90
7472;DHT22;3777;48.722;8.110;2023-11-18T00:23:35;9.40;99.90
7472;DHT22;3777;48.722;8.110;2023-11-18T00:26:03;9.40;99.90
7472;DHT22;3777;48.722;8.110;2023-11-18T00:28:32;9.40;99.90
7472;DHT22;3777;48.722;8.110;2023-11-18T00:31:00;9.40;99.90
7472;DHT22;3777;48.722;8.110;2023-11-18T00:33:29;9.40;99.90
7472;DHT22;3777;48.722;8.110;2023-11-18T00:35:56;9.50;99.90
7472;DHT22;3777;48.722;8.110;2023-11-18T00:38:23;9.40;99.90
7472;DHT22;3777;48.722;8.110;2023-11-18T00:40:50;9.40;99.90
7472;DHT22;3777;48.722;8.110;2023-11-18T00:43:16;9.30;99.90
7472;DHT22;3777;48.722;8.110;2023-11-18T00:45:43;9.30;99.90
7472;DHT22;3777;48.722;8.110;2023-11-18T00:48:11;9.20;99.90
7472;DHT22;3777;48.722;8.110;2023-11-18T00:50:38;9.20;99.90
7472;DHT22;3777;48.722;8.110;2023-11-18T00:53:05;9.10;99.90
7472;DHT22;3777;48.722;8.110;2023-11-18T00:55:32;9.10;99.90
7472;DHT22;3777;48.722;8.110;2023-11-18T00:57:59;9.10;99.90
7472;DHT22;3777;48.722;8.110;2023-11-18T01:00:26;9.10;99.90
7472;DHT22;3777;48.722;8.110;2023-11-18T01:02:53;9.10;99.90
7472;DHT22;3777;48.722;8.110;2023-11-18T01:05:22;9.10;99.90
7472;DHT22;3777;48.722;8.110;2023-11-18T01:07:49;9.10;99.90
7472;DHT22;3777;48.722;8.110;2023-11-18T01:10:16;9.10;99.90
7472;DHT22;3777;48.722;8.110;2023-11-18T01:12:44;8.90;99.90
7472;DHT22;3777;48.722;8.110;2023-11-18T01:15:11;9.00;99.90
7472;DHT22;3777;48.722;8.110;2023-11-18T01:17:39;9.00;99.90
7472;DHT22;3777;48.722;8.110;2023-11-18T01:20:07;9.10;99.90
7472;DHT22;3777;48.722;8.110;2023-11-18T01:22:37;9.10;99.90
7472;DHT22;3777;48.722;8.110;2023-11-18T01:25:05;9.10;99.90
7472;DHT22;3777;48.722;8.110;2023-11-18T01:27:34;9.10;99.90
7472;DHT22;3777;48.722;8.110;2023-11-18T01:30:01;9.10;99.90
7472;DHT22;3777;48.722;8.110;2023-11-18T01:32:29;9.10;99.90
7472;DHT22;3777;48.722;8.110;2023-11-18T01:34:56;9.10;99.90
7472;DHT22;3777;48.722;8.110;2023-11-18T01:37:23;9.10;99.90
7472;DHT22;3777;48.722;8.110;2023-11-18T01:39:51;9.20;99.90
7472;DHT22;3777;48.722;8.110;2023-11-18T01:42:18;9.10;99.90
7472;DHT22;3777;48.722;8.110;2023-11-18T01:44:45;9.10;99.90
7472;DHT22;3777;48.722;8.110;2023-11-18T01:47:12;9.00;99.90
7472;DHT22;3777;48.722;8.110;2023-11-18T01:49:40;8.90;99.90
7472;DHT22;3777;48.722;8.110;2023-11-18T01:52:07;8.80;99.90
7472;DHT22;3777;48.722;8.110;2023-11-18T01:54:34;8.60;99.90
7472;DHT22;3777;48.722;8.110;2023-11-18T01:57:05;8.60;99.90
7472;DHT22;3777;48.722;8.110;2023-11-18T01:59:32;8.40;99.90
7472;DHT22;3777;48.722;8.110;2023-11-18T02:02:00;8.30;99.90
7472;DHT22;3777;48.722;8.110;2023-11-18T02:04:27;8.20;99.90
7472;DHT22;3777;48.722;8.110;2023-11-18T02:06:55;8.20;99.90
7472;DHT22;3777;48.722;8.110;2023-11-18T02:09:23;8.10;99.90
7472;DHT22;3777;48.722;8.110;2023-11-18T02:11:56;8.10;99.90
7472;DHT22;3777;48.722;8.110;2023-11-18T02:14:29;8.10;99.90
7472;DHT22;3777;48.722;8.110;2023-11-18T02:17:01;8.30;99.90
7472;DHT22;3777;48.722;8.110;2023-11-18T02:19:29;8.30;99.90
7472;DHT22;3777;48.722;8.110;2023-11-18T02:21:57;8.40;99.90
7472;DHT22;3777;48.722;8.110;2023-11-18T02:24:25;8.50;99.90
7472;DHT22;3777;48.722;8.110;2023-11-18T02:26:57;8.60;99.90
7472;DHT22;3777;48.722;8.110;2023-11-18T02:29:25;8.50;99.90
7472;DHT22;3777;48.722;8.110;2023-11-18T02:31:55;8.50;99.90
7472;DHT22;3777;48.722;8.110;2023-11-18T02:34:27;8.40;99.90
7472;DHT22;3777;48.722;8.110;2023-11-18T02:36:57;8.50;99.90
7472;DHT22;3777;48.722;8.110;2023-11-18T02:39:32;8.60;99.90
7472;DHT22;3777;48.722;8.110;2023-11-18T02:42:02;8.60;99.90
7472;DHT22;3777;48.722;8.110;2023-11-18T02:44:30;8.60;99.90
7472;DHT22;3777;48.722;8.110;2023-11-18T02:46:58;8.50;99.90
7472;DHT22;3777;48.722;8.110;2023-11-18T02:49:26;8.40;99.90
7472;DHT22;3777;48.722;8.110;2023-11-18T02:51:53;8.40;99.90
7472;DHT22;3777;48.722;8.110;2023-11-18T02:54:20;8.40;99.90
7472;DHT22;3777;48.722;8.110;2023-11-18T02:56:47;8.30;99.90
7472;DHT22;3777;48.722;8.110;2023-11-18T02:59:16;8.30;99.90
7472;DHT22;3777;48.722;8.110;2023-11-18T03:01:43;8.20;99.90
7472;DHT22;3777;48.722;8.110;2023-11-18T03:04:10;8.20;99.90
7472;DHT22;3777;48.722;8.110;2023-11-18T03:06:36;8.20;99.90
7472;DHT22;3777;48.722;8.110;2023-11-18T03:09:03;8.10;99.90
7472;DHT22;3777;48.722;8.110;2023-11-18T03:11:32;8.10;99.90
7472;DHT22;3777;48.722;8.110;2023-11-18T03:14:00;8.00;99.90
7472;DHT22;3777;48.722;8.110;2023-11-18T03:16:28;8.00;99.90
7472;DHT22;3777;48.722;8.110;2023-11-18T03:18:55;7.90;99.90
7472;DHT22;3777;48.722;8.110;2023-11-18T03:21:23;7.90;99.90
7472;DHT22;3777;48.722;8.110;2023-11-18T03:23:51;7.80;99.90
7472;DHT22;3777;48.722;8.110;2023-11-18T03:26:19;7.80;99.90
7472;DHT22;3777;48.722;8.110;2023-11-18T03:28:46;7.70;99.90
7472;DHT22;3777;48.722;8.110;2023-11-18T03:31:12;7.60;99.90
7472;DHT22;3777;48.722;8.110;2023-11-18T03:33:41;7.50;99.90
7472;DHT22;3777;48.722;8.110;2023-11-18T03:36:09;7.50;99.90
7472;DHT22;3777;48.722;8.110;2023-11-18T03:38:37;7.40;99.90
7472;DHT22;3777;48.722;8.110;2023-11-18T03:41:04;7.40;99.90
7472;DHT22;3777;48.722;8.110;2023-11-18T03:43:33;7.30;99.90
7472;DHT22;3777;48.722;8.110;2023-11-18T03:46:00;7.30;99.90
7472;DHT22;3777;48.722;8.110;2023-11-18T03:48:27;7.20;99.90
7472;DHT22;3777;48.722;8.110;2023-11-18T03:50:55;7.20;99.90
7472;DHT22;3777;48.722;8.110;2023-11-18T03:53:22;7.20;99.90
7472;DHT22;3777;48.722;8.110;2023-11-18T03:55:48;7.20;99.90
7472;DHT22;3777;48.722;8.110;2023-11-18T03:58:17;7.10;99.90
7472;DHT22;3777;48.722;8.110;2023-11-18T04:00:44;7.10;99.90
7472;DHT22;3777;48.722;8.110;2023-11-18T04:03:10;7.10;99.90
7472;DHT22;3777;48.722;8.110;2023-11-18T04:05:37;7.00;99.90
7472;DHT22;3777;48.722;8.110;2023-11-18T04:08:06;7.00;99.90
7472;DHT22;3777;48.722;8.110;2023-11-18T04:10:33;6.90;99.90
7472;DHT22;3777;48.722;8.110;2023-11-18T04:13:00;6.80;99.90
7472;DHT22;3777;48.722;8.110;2023-11-18T04:15:27;6.90;99.90
7472;DHT22;3777;48.722;8.110;2023-11-18T04:17:54;6.90;99.90
7472;DHT22;3777;48.722;8.110;2023-11-18T04:20:21;6.80;99.90
7472;DHT22;3777;48.722;8.110;2023-11-18T04:22:48;6.80;99.90
7472;DHT22;3777;48.722;8.110;2023-11-18T04:25:17;6.80;99.90
7472;DHT22;3777;48.722;8.110;2023-11-18T04:27:43;6.80;99.90
7472;DHT22;3777;48.722;8.110;2023-11-18T04:30:11;6.80;99.90
7472;DHT22;3777;48.722;8.110;2023-11-18T04:32:38;6.80;99.90
7472;DHT22;3777;48.722;8.110;2023-11-18T04:35:08;6.80;99.90
7472;DHT22;3777;48.722;8.110;2023-11-18T04:37:35;6.90;99.90
7472;DHT22;3777;48.722;8.110;2023-11-18T04:40:02;6.90;99.90
7472;DHT22;3777;48.722;8.110;2023-11-18T04:42:31;6.90;99.90
7472;DHT22;3777;48.722;8.110;2023-11-18T04:44:57;6.90;99.90
7472;DHT22;3777;48.722;8.110;2023-11-18T04:47:24;6.90;99.90
7472;DHT22;3777;48.722;8.110;2023-11-18T04:49:52;6.90;99.90
7472;DHT22;3777;48.722;8.110;2023-11-18T04:52:19;6.90;99.90
7472;DHT22;3777;48.722;8.110;2023-11-18T04:54:46;6.90;99.90
7472;DHT22;3777;48.722;8.110;2023-11-18T04:57:13;6.90;99.90
7472;DHT22;3777;48.722;8.110;2023-11-18T04:59:42;6.90;99.90
7472;DHT22;3777;48.722;8.110;2023-11-18T05:02:09;6.90;99.90
7472;DHT22;3777;48.722;8.110;2023-11-18T05:04:36;6.80;99.90
7472;DHT22;3777;48.722;8.110;2023-11-18T05:07:03;6.80;99.90
7472;DHT22;3777;48.722;8.110;2023-11-18T05:09:31;6.80;99.90
7472;DHT22;3777;48.722;8.110;2023-11-18T05:12:00;6.80;99.90
7472;DHT22;3777;48.722;8.110;2023-11-18T05:14:26;6.70;99.90
7472;DHT22;3777;48.722;8.110;2023-11-18T05:16:55;6.70;99.90
7472;DHT22;3777;48.722;8.110;2023-11-18T05:19:22;6.70;99.90
7472;DHT22;3777;48.722;8.110;2023-11-18T05:21:49;6.70;99.90
7472;DHT22;3777;48.722;8.110;2023-11-18T05:24:16;6.70;99.90
7472;DHT22;3777;48.722;8.110;2023-11-18T05:26:42;6.70;99.90
7472;DHT22;3777;48.722;8.110;2023-11-18T05:29:09;6.70;99.90
7472;DHT22;3777;48.722;8.110;2023-11-18T05:31:41;6.70;99.90
7472;DHT22;3777;48.722;8.110;2023-11-18T05:34:09;6.70;99.90
7472;DHT22;3777;48.722;8.110;2023-11-18T05:36:38;6.70;99.90
7472;DHT22;3777;48.722;8.110;2023-11-18T05:39:06;6.70;99.90
7472;DHT22;3777;48.722;8.110;2023-11-18T05:41:34;6.70;99.90
7472;DHT22;3777;48.722;8.110;2023-11-18T05:44:05;6.70;99.90
7472;DHT22;3777;48.722;8.110;2023-11-18T05:46:34;6.60;99.90
7472;DHT22;3777;48.722;8.110;2023-11-18T05:49:02;6.70;99.90
7472;DHT22;3777;48.722;8.110;2023-11-18T05:51:33;6.70;99.90
7472;DHT22;3777;48.722;8.110;2023-11-18T05:54:00;6.70;99.90
7472;DHT22;3777;48.722;8.110;2023-11-18T05:56:27;6.70;99.90
7472;DHT22;3777;48.722;8.110;2023-11-18T05:58:54;6.70;99.90
7472;DHT22;3777;48.722;8.110;2023-11-18T06:01:21;6.70;99.90
7472;DHT22;3777;48.722;8.110;2023-11-18T06:03:48;6.60;99.90
7472;DHT22;3777;48.722;8.110;2023-11-18T06:06:16;6.70;99.90
7472;DHT22;3777;48.722;8.110;2023-11-18T06:08:44;6.70;99.90
7472;DHT22;3777;48.722;8.110;2023-11-18T06:11:13;6.70;99.90
7472;DHT22;3777;48.722;8.110;2023-11-18T06:13:41;6.70;99.90
7472;DHT22;3777;48.722;8.110;2023-11-18T06:16:10;6.70;99.90
7472;DHT22;3777;48.722;8.110;2023-11-18T06:18:40;6.70;99.90
7472;DHT22;3777;48.722;8.110;2023-11-18T06:21:07;6.70;99.90
7472;DHT22;3777;48.722;8.110;2023-11-18T06:23:34;6.70;99.90
7472;DHT22;3777;48.722;8.110;2023-11-18T06:26:02;6.70;99.90
7472;DHT22;3777;48.722;8.110;2023-11-18T06:28:30;6.80;99.90
7472;DHT22;3777;48.722;8.110;2023-11-18T06:30:56;6.70;99.90
7472;DHT22;3777;48.722;8.110;2023-11-18T06:33:23;6.70;99.90
7472;DHT22;3777;48.722;8.110;2023-11-18T06:35:53;6.70;99.90
7472;DHT22;3777;48.722;8.110;2023-11-18T06:38:21;6.70;99.90
7472;DHT22;3777;48.722;8.110;2023-11-18T06:40:50;6.70;99.90
7472;DHT22;3777;48.722;8.110;2023-11-18T06:43:19;6.80;99.90
7472;DHT22;3777;48.722;8.110;2023-11-18T06:45:46;6.80;99.90
7472;DHT22;3777;48.722;8.110;2023-11-18T06:48:14;6.80;99.90
7472;DHT22;3777;48.722;8.110;2023-11-18T06:50:44;6.80;99.90
7472;DHT22;3777;48.722;8.110;2023-11-18T06:53:10;6.80;99.90
7472;DHT22;3777;48.722;8.110;2023-11-18T06:55:38;6.90;99.90
7472;DHT22;3777;48.722;8.110;2023-11-18T06:58:04;6.90;99.90
7472;DHT22;3777;48.722;8.110;2023-11-18T07:00:33;6.90;99.90
7472;DHT22;3777;48.722;8.110;2023-11-18T07:03:01;7.00;99.90
7472;DHT22;3777;48.722;8.110;2023-11-18T07:05:27;7.10;99.90
7472;DHT22;3777;48.722;8.110;2023-11-18T07:07:54;7.10;99.90
7472;DHT22;3777;48.722;8.110;2023-11-18T07:10:21;7.20;99.90
7472;DHT22;3777;48.722;8.110;2023-11-18T07:12:48;7.20;99.90
7472;DHT22;3777;48.722;8.110;2023-11-18T07:15:15;7.30;99.90
7472;DHT22;3777;48.722;8.110;2023-11-18T07:17:44;7.30;99.90
7472;DHT22;3777;48.722;8.110;2023-11-18T07:20:12;7.40;99.90
7472;DHT22;3777;48.722;8.110;2023-11-18T07:22:39;7.40;99.90
7472;DHT22;3777;48.722;8.110;2023-11-18T07:25:07;7.50;99.90
7472;DHT22;3777;48.722;8.110;2023-11-18T07:27:35;7.60;99.90
7472;DHT22;3777;48.722;8.110;2023-11-18T07:30:02;7.60;99.90
7472;DHT22;3777;48.722;8.110;2023-11-18T07:32:32;7.70;99.90
7472;DHT22;3777;48.722;8.110;2023-11-18T07:35:00;7.80;99.90
7472;DHT22;3777;48.722;8.110;2023-11-18T07:37:27;7.80;99.90
7472;DHT22;3777;48.722;8.110;2023-11-18T07:39:58;7.90;99.90
7472;DHT22;3777;48.722;8.110;2023-11-18T07:42:26;7.90;99.90
7472;DHT22;3777;48.722;8.110;2023-11-18T07:44:53;8.00;99.90
7472;DHT22;3777;48.722;8.110;2023-11-18T07:47:20;8.00;99.90
7472;DHT22;3777;48.722;8.110;2023-11-18T07:49:47;8.10;99.90
7472;DHT22;3777;48.722;8.110;2023-11-18T07:52:15;8.20;99.90
7472;DHT22;3777;48.722;8.110;2023-11-18T07:54:42;8.20;99.90
7472;DHT22;3777;48.722;8.110;2023-11-18T07:57:09;8.20;99.90
7472;DHT22;3777;48.722;8.110;2023-11-18T07:59:36;8.40;99.90
7472;DHT22;3777;48.722;8.110;2023-11-18T08:02:03;8.40;99.90
7472;DHT22;3777;48.722;8.110;2023-11-18T08:04:34;8.50;99.90
7472;DHT22;3777;48.722;8.110;2023-11-18T08:07:02;8.50;99.90
7472;DHT22;3777;48.722;8.110;2023-11-18T08:09:31;8.50;99.90
7472;DHT22;3777;48.722;8.110;2023-11-18T08:11:58;8.60;99.90
7472;DHT22;3777;48.722;8.110;2023-11-18T08:14:24;8.60;99.90
7472;DHT22;3777;48.722;8.110;2023-11-18T08:16:52;8.70;99.90
7472;DHT22;3777;48.722;8.110;2023-11-18T08:19:21;8.80;99.90
7472;DHT22;3777;48.722;8.110;2023-11-18T08:21:48;8.80;99.90
7472;DHT22;3777;48.722;8.110;2023-11-18T08:24:15;8.90;99.90
7472;DHT22;3777;48.722;8.110;2023-11-18T08:26:46;8.90;99.90
7472;DHT22;3777;48.722;8.110;2023-11-18T08:29:13;9.00;99.90
7472;DHT22;3777;48.722;8.110;2023-11-18T08:31:39;9.00;99.90
7472;DHT22;3777;48.722;8.110;2023-11-18T08:34:06;9.10;99.90
7472;DHT22;3777;48.722;8.110;2023-11-18T08:36:35;9.20;99.90
7472;DHT22;3777;48.722;8.110;2023-11-18T08:39:03;9.20;99.90
7472;DHT22;3777;48.722;8.110;2023-11-18T08:41:30;9.20;99.90
7472;DHT22;3777;48.722;8.110;2023-11-18T08:43:58;9.30;99.90
7472;DHT22;3777;48.722;8.110;2023-11-18T08:46:25;9.40;99.90
7472;DHT22;3777;48.722;8.110;2023-11-18T08:48:52;9.40;99.90
7472;DHT22;3777;48.722;8.110;2023-11-18T08:51:21;9.40;99.90
7472;DHT22;3777;48.722;8.110;2023-11-18T08:53:51;9.50;99.90
7472;DHT22;3777;48.722;8.110;2023-11-18T08:56:20;9.60;99.90
7472;DHT22;3777;48.722;8.110;2023-11-18T08:58:58;9.70;99.90
7472;DHT22;3777;48.722;8.110;2023-11-18T09:01:26;9.80;99.90
7472;DHT22;3777;48.722;8.110;2023-11-18T09:03:53;9.80;99.90
7472;DHT22;3777;48.722;8.110;2023-11-18T09:06:22;9.90;99.90
7472;DHT22;3777;48.722;8.110;2023-11-18T09:08:54;10.00;99.90
7472;DHT22;3777;48.722;8.110;2023-11-18T09:11:23;10.00;99.90
7472;DHT22;3777;48.722;8.110;2023-11-18T09:13:52;10.10;99.90
7472;DHT22;3777;48.722;8.110;2023-11-18T09:16:24;10.30;99.90
7472;DHT22;3777;48.722;8.110;2023-11-18T09:18:54;10.40;99.90
7472;DHT22;3777;48.722;8.110;2023-11-18T09:21:24;10.50;99.90
7472;DHT22;3777;48.722;8.110;2023-11-18T09:23:54;10.60;99.90
7472;DHT22;3777;48.722;8.110;2023-11-18T09:26:22;10.70;99.90
7472;DHT22;3777;48.722;8.110;2023-11-18T09:28:51;10.90;99.90
7472;DHT22;3777;48.722;8.110;2023-11-18T09:31:18;11.00;99.90
7472;DHT22;3777;48.722;8.110;2023-11-18T09:33:48;11.10;99.90
7472;DHT22;3777;48.722;8.110;2023-11-18T09:36:19;11.30;99.90
7472;DHT22;3777;48.722;8.110;2023-11-18T09:38:47;11.40;99.90
7472;DHT22;3777;48.722;8.110;2023-11-18T09:41:15;11.40;99.90
7472;DHT22;3777;48.722;8.110;2023-11-18T09:43:43;11.40;99.90
7472;DHT22;3777;48.722;8.110;2023-11-18T09:46:12;11.50;99.90
7472;DHT22;3777;48.722;8.110;2023-11-18T09:48:42;11.50;99.90
7472;DHT22;3777;48.722;8.110;2023-11-18T09:51:15;11.50;99.90
7472;DHT22;3777;48.722;8.110;2023-11-18T09:53:45;11.50;99.90
7472;DHT22;3777;48.722;8.110;2023-11-18T09:56:18;11.60;99.90
7472;DHT22;3777;48.722;8.110;2023-11-18T09:58:57;11.70;99.90
7472;DHT22;3777;48.722;8.110;2023-11-18T10:01:30;11.70;99.90
7472;DHT22;3777;48.722;8.110;2023-11-18T10:03:59;11.80;99.90
7472;DHT22;3777;48.722;8.110;2023-11-18T10:06:35;11.90;99.90
7472;DHT22;3777;48.722;8.110;2023-11-18T10:09:06;11.80;99.90
7472;DHT22;3777;48.722;8.110;2023-11-18T10:11:42;11.80;99.90
7472;DHT22;3777;48.722;8.110;2023-11-18T10:14:08;11.70;99.90
7472;DHT22;3777;48.722;8.110;2023-11-18T10:16:36;11.70;99.90
7472;DHT22;3777;48.722;8.110;2023-11-18T10:19:04;11.70;99.90
7472;DHT22;3777;48.722;8.110;2023-11-18T10:21:36;11.70;99.90
7472;DHT22;3777;48.722;8.110;2023-11-18T10:24:06;11.70;99.90
7472;DHT22;3777;48.722;8.110;2023-11-18T10:26:40;11.60;99.90
7472;DHT22;3777;48.722;8.110;2023-11-18T10:29:09;11.60;99.90
7472;DHT22;3777;48.722;8.110;2023-11-18T10:31:38;11.50;99.90
7472;DHT22;3777;48.722;8.110;2023-11-18T10:34:11;11.50;99.90
7472;DHT22;3777;48.722;8.110;2023-11-18T10:36:58;11.60;99.90
7472;DHT22;3777;48.722;8.110;2023-11-18T10:39:28;11.60;99.90
7472;DHT22;3777;48.722;8.110;2023-11-18T10:41:58;11.60;99.90
7472;DHT22;3777;48.722;8.110;2023-11-18T10:44:25;11.60;99.90
7472;DHT22;3777;48.722;8.110;2023-11-18T10:46:53;11.60;99.90
7472;DHT22;3777;48.722;8.110;2023-11-18T10:49:20;11.70;99.90
7472;DHT22;3777;48.722;8.110;2023-11-18T10:51:50;11.70;99.90
7472;DHT22;3777;48.722;8.110;2023-11-18T10:54:17;11.70;99.90
7472;DHT22;3777;48.722;8.110;2023-11-18T10:56:49;11.70;99.90
7472;DHT22;3777;48.722;8.110;2023-11-18T10:59:16;11.70;99.90
7472;DHT22;3777;48.722;8.110;2023-11-18T11:01:44;11.70;99.90
7472;DHT22;3777;48.722;8.110;2023-11-18T11:04:15;11.70;99.90
7472;DHT22;3777;48.722;8.110;2023-11-18T11:06:47;11.70;99.90
7472;DHT22;3777;48.722;8.110;2023-11-18T11:09:19;11.70;99.90
7472;DHT22;3777;48.722;8.110;2023-11-18T11:11:53;11.70;99.90
7472;DHT22;3777;48.722;8.110;2023-11-18T11:14:22;11.70;99.90
7472;DHT22;3777;48.722;8.110;2023-11-18T11:16:55;11.70;99.90
7472;DHT22;3777;48.722;8.110;2023-11-18T11:19:26;11.70;99.90
7472;DHT22;3777;48.722;8.110;2023-11-18T11:22:01;11.70;99.90
7472;DHT22;3777;48.722;8.110;2023-11-18T11:24:48;11.70;99.90
7472;DHT22;3777;48.722;8.110;2023-11-18T11:27:22;11.60;99.90
7472;DHT22;3777;48.722;8.110;2023-11-18T11:29:57;11.60;99.90
7472;DHT22;3777;48.722;8.110;2023-11-18T11:32:30;11.60;99.90
7472;DHT22;3777;48.722;8.110;2023-11-18T11:35:08;11.60;99.90
7472;DHT22;3777;48.722;8.110;2023-11-18T11:37:43;11.50;99.90
7472;DHT22;3777;48.722;8.110;2023-11-18T11:40:14;11.40;99.90
7472;DHT22;3777;48.722;8.110;2023-11-18T11:42:49;11.40;99.90
7472;DHT22;3777;48.722;8.110;2023-11-18T11:45:23;11.30;99.90
7472;DHT22;3777;48.722;8.110;2023-11-18T11:47:55;11.30;99.90
7472;DHT22;3777;48.722;8.110;2023-11-18T11:50:46;11.20;99.90
7472;DHT22;3777;48.722;8.110;2023-11-18T11:53:20;11.20;99.90
7472;DHT22;3777;48.722;8.110;2023-11-18T11:55:52;11.20;99.90
7472;DHT22;3777;48.722;8.110;2023-11-18T11:58:26;11.20;99.90
7472;DHT22;3777;48.722;8.110;2023-11-18T12:00:53;11.20;99.90
7472;DHT22;3777;48.722;8.110;2023-11-18T12:03:21;11.20;99.90
7472;DHT22;3777;48.722;8.110;2023-11-18T12:05:49;11.30;99.90
7472;DHT22;3777;48.722;8.110;2023-11-18T12:08:18;11.30;99.90
7472;DHT22;3777;48.722;8.110;2023-11-18T12:10:54;11.30;99.90
7472;DHT22;3777;48.722;8.110;2023-11-18T12:13:22;11.30;99.90
7472;DHT22;3777;48.722;8.110;2023-11-18T12:15:52;11.40;99.90
7472;DHT22;3777;48.722;8.110;2023-11-18T12:18:23;11.40;99.90
7472;DHT22;3777;48.722;8.110;2023-11-18T12:20:51;11.40;99.90
7472;DHT22;3777;48.722;8.110;2023-11-18T12:23:22;11.40;99.90
7472;DHT22;3777;48.722;8.110;2023-11-18T12:25:51;11.40;99.90
7472;DHT22;3777;48.722;8.110;2023-11-18T12:28:25;11.50;99.90
7472;DHT22;3777;48.722;8.110;2023-11-18T12:31:02;11.50;99.90
7472;DHT22;3777;48.722;8.110;2023-11-18T12:34:02;11.60;99.90
7472;DHT22;3777;48.722;8.110;2023-11-18T12:37:03;11.70;99.90
7472;DHT22;3777;48.722;8.110;2023-11-18T12:39:59;11.80;99.90
7472;DHT22;3777;48.722;8.110;2023-11-18T12:42:59;11.80;99.90
7472;DHT22;3777;48.722;8.110;2023-11-18T12:48:30;11.80;99.90
7472;DHT22;3777;48.722;8.110;2023-11-18T12:50:58;11.90;99.90
7472;DHT22;3777;48.722;8.110;2023-11-18T12:53:26;11.90;99.90
7472;DHT22;3777;48.722;8.110;2023-11-18T12:55:54;12.00;99.90
7472;DHT22;3777;48.722;8.110;2023-11-18T12:58:21;12.00;99.90
7472;DHT22;3777;48.722;8.110;2023-11-18T13:00:48;12.10;99.90
7472;DHT22;3777;48.722;8.110;2023-11-18T13:03:15;12.10;99.90
7472;DHT22;3777;48.722;8.110;2023-11-18T13:05:45;12.10;99.90
7472;DHT22;3777;48.722;8.110;2023-11-18T13:08:13;12.10;99.90
7472;DHT22;3777;48.722;8.110;2023-11-18T13:10:41;12.00;99.90
7472;DHT22;3777;48.722;8.110;2023-11-18T13:13:11;12.10;99.90
7472;DHT22;3777;48.722;8.110;2023-11-18T13:15:40;12.10;99.90
7472;DHT22;3777;48.722;8.110;2023-11-18T13:18:07;12.10;99.90
7472;DHT22;3777;48.722;8.110;2023-11-18T13:20:34;12.10;99.90
7472;DHT22;3777;48.722;8.110;2023-11-18T13:23:04;12.20;99.90
7472;DHT22;3777;48.722;8.110;2023-11-18T13:25:34;12.10;99.90
7472;DHT22;3777;48.722;8.110;2023-11-18T13:28:04;12.10;99.90
7472;DHT22;3777;48.722;8.110;2023-11-18T13:30:33;12.10;99.90
7472;DHT22;3777;48.722;8.110;2023-11-18T13:33:00;12.10;99.90
7472;DHT22;3777;48.722;8.110;2023-11-18T13:35:29;12.10;99.90
7472;DHT22;3777;48.722;8.110;2023-11-18T13:37:56;12.10;99.90
7472;DHT22;3777;48.722;8.110;2023-11-18T13:40:25;12.10;99.90
7472;DHT22;3777;48.722;8.110;2023-11-18T13:43:02;12.10;99.90
7472;DHT22;3777;48.722;8.110;2023-11-18T13:45:31;12.00;99.90
7472;DHT22;3777;48.722;8.110;2023-11-18T13:48:00;11.90;99.90
7472;DHT22;3777;48.722;8.110;2023-11-18T13:50:27;11.90;99.90
7472;DHT22;3777;48.722;8.110;2023-11-18T13:52:56;11.80;99.90
7472;DHT22;3777;48.722;8.110;2023-11-18T13:55:25;11.70;99.90
7472;DHT22;3777;48.722;8.110;2023-11-18T13:57:54;11.70;99.90
7472;DHT22;3777;48.722;8.110;2023-11-18T14:00:24;11.70;99.90
7472;DHT22;3777;48.722;8.110;2023-11-18T14:02:54;11.80;99.90
7472;DHT22;3777;48.722;8.110;2023-11-18T14:05:22;11.90;99.90
7472;DHT22;3777;48.722;8.110;2023-11-18T14:07:51;11.90;99.90
7472;DHT22;3777;48.722;8.110;2023-11-18T14:10:18;12.00;99.90
7472;DHT22;3777;48.722;8.110;2023-11-18T14:13:03;12.00;99.90
7472;DHT22;3777;48.722;8.110;2023-11-18T14:15:31;12.10;99.90
7472;DHT22;3777;48.722;8.110;2023-11-18T14:18:01;12.10;99.90
7472;DHT22;3777;48.722;8.110;2023-11-18T14:20:28;12.10;99.90
7472;DHT22;3777;48.722;8.110;2023-11-18T14:22:57;11.80;99.90
7472;DHT22;3777;48.722;8.110;2023-11-18T14:25:24;11.60;99.90
7472;DHT22;3777;48.722;8.110;2023-11-18T14:27:51;11.50;99.90
7472;DHT22;3777;48.722;8.110;2023-11-18T14:30:20;11.60;99.90
7472;DHT22;3777;48.722;8.110;2023-11-18T14:32:50;11.70;99.90
7472;DHT22;3777;48.722;8.110;2023-11-18T14:35:17;11.80;99.90
7472;DHT22;3777;48.722;8.110;2023-11-18T14:37:44;11.90;99.90
7472;DHT22;3777;48.722;8.110;2023-11-18T14:40:12;12.00;99.90
7472;DHT22;3777;48.722;8.110;2023-11-18T14:42:41;12.00;99.90
7472;DHT22;3777;48.722;8.110;2023-11-18T14:45:10;12.10;99.90
7472;DHT22;3777;48.722;8.110;2023-11-18T14:47:39;12.10;99.90
7472;DHT22;3777;48.722;8.110;2023-11-18T14:50:07;12.10;99.90
7472;DHT22;3777;48.722;8.110;2023-11-18T14:52:43;12.10;99.90
7472;DHT22;3777;48.722;8.110;2023-11-18T14:55:11;12.10;99.90
7472;DHT22;3777;48.722;8.110;2023-11-18T14:57:39;11.90;99.90
7472;DHT22;3777;48.722;8.110;2023-11-18T15:00:07;11.90;99.90
7472;DHT22;3777;48.722;8.110;2023-11-18T15:02:35;11.80;99.90
7472;DHT22;3777;48.722;8.110;2023-11-18T15:05:04;11.80;99.90
7472;DHT22;3777;48.722;8.110;2023-11-18T15:07:34;11.80;99.90
7472;DHT22;3777;48.722;8.110;2023-11-18T15:10:01;11.80;99.90
7472;DHT22;3777;48.722;8.110;2023-11-18T15:12:29;11.80;99.90
7472;DHT22;3777;48.722;8.110;2023-11-18T15:14:56;11.80;99.90
7472;DHT22;3777;48.722;8.110;2023-11-18T15:17:25;11.80;99.90
7472;DHT22;3777;48.722;8.110;2023-11-18T15:19:52;11.70;99.90
7472;DHT22;3777;48.722;8.110;2023-11-18T15:22:22;11.80;99.90
7472;DHT22;3777;48.722;8.110;2023-11-18T15:24:49;11.70;99.90
7472;DHT22;3777;48.722;8.110;2023-11-18T15:27:16;11.70;99.90
7472;DHT22;3777;48.722;8.110;2023-11-18T15:29:45;11.70;99.90
7472;DHT22;3777;48.722;8.110;2023-11-18T15:32:16;11.60;99.90
7472;DHT22;3777;48.722;8.110;2023-11-18T15:34:44;11.60;99.90
7472;DHT22;3777;48.722;8.110;2023-11-18T15:37:11;11.60;99.90
7472;DHT22;3777;48.722;8.110;2023-11-18T15:39:40;11.50;99.90
7472;DHT22;3777;48.722;8.110;2023-11-18T15:42:07;11.50;99.90
7472;DHT22;3777;48.722;8.110;2023-11-18T15:44:35;11.50;99.90
7472;DHT22;3777;48.722;8.110;2023-11-18T15:47:04;11.40;99.90
7472;DHT22;3777;48.722;8.110;2023-11-18T15:49:31;11.30;99.90
7472;DHT22;3777;48.722;8.110;2023-11-18T15:51:58;11.30;99.90
7472;DHT22;3777;48.722;8.110;2023-11-18T15:54:25;11.30;99.90
7472;DHT22;3777;48.722;8.110;2023-11-18T15:56:54;11.20;99.90
7472;DHT22;3777;48.722;8.110;2023-11-18T15:59:21;11.10;99.90
7472;DHT22;3777;48.722;8.110;2023-11-18T16:01:50;11.10;99.90
7472;DHT22;3777;48.722;8.110;2023-11-18T16:04:17;11.00;99.90
7472;DHT22;3777;48.722;8.110;2023-11-18T16:06:44;11.00;99.90
7472;DHT22;3777;48.722;8.110;2023-11-18T16:09:11;11.00;99.90
7472;DHT22;3777;48.722;8.110;2023-11-18T16:11:38;11.00;99.90
7472;DHT22;3777;48.722;8.110;2023-11-18T16:14:06;11.00;99.90
7472;DHT22;3777;48.722;8.110;2023-11-18T16:16:33;10.90;99.90
7472;DHT22;3777;48.722;8.110;2023-11-18T16:19:00;10.90;99.90
7472;DHT22;3777;48.722;8.110;2023-11-18T16:21:27;10.90;99.90
7472;DHT22;3777;48.722;8.110;2023-11-18T16:23:54;10.80;99.90